sensor_id;sensor_type;location;lat;lon;timestamp;P1;durP1;ratioP1;P2;durP2;ratioP2
81672;SDS011;71092;41.158;-8.680;2024-01-16T00:00:56;13.10;;;6.78;;
81672;SDS011;71092;41.158;-8.680;2024-01-16T00:05:48;12.93;;;6.40;;
81672;SDS011;71092;41.158;-8.680;2024-01-16T00:08:14;11.55;;;7.30;;
81672;SDS011;71092;41.158;-8.680;2024-01-16T00:10:40;15.52;;;6.88;;
81672;SDS011;71092;41.158;-8.680;2024-01-16T00:13:06;15.63;;;6.40;;
81672;SDS011;71092;41.158;-8.680;2024-01-16T00:15:32;11.90;;;6.10;;
81672;SDS011;71092;41.158;-8.680;2024-01-16T00:20:23;13.27;;;6.25;;
81672;SDS011;71092;41.158;-8.680;2024-01-16T00:22:51;15.80;;;6.85;;
81672;SDS011;71092;41.158;-8.680;2024-01-16T00:27:45;13.38;;;7.22;;
81672;SDS011;71092;41.158;-8.680;2024-01-16T00:30:12;14.10;;;7.68;;
81672;SDS011;71092;41.158;-8.680;2024-01-16T00:32:41;15.05;;;7.35;;
81672;SDS011;71092;41.158;-8.680;2024-01-16T00:35:07;13.77;;;7.03;;
81672;SDS011;71092;41.158;-8.680;2024-01-16T00:37:33;12.80;;;6.22;;
81672;SDS011;71092;41.158;-8.680;2024-01-16T00:39:59;16.10;;;6.60;;
81672;SDS011;71092;41.158;-8.680;2024-01-16T00:44:50;12.30;;;6.43;;
81672;SDS011;71092;41.158;-8.680;2024-01-16T00:47:16;12.43;;;6.25;;
81672;SDS011;71092;41.158;-8.680;2024-01-16T00:49:42;12.52;;;6.13;;
81672;SDS011;71092;41.158;-8.680;2024-01-16T00:52:08;13.95;;;6.93;;
81672;SDS011;71092;41.158;-8.680;2024-01-16T00:54:34;15.68;;;7.00;;
81672;SDS011;71092;41.158;-8.680;2024-01-16T00:57:00;13.88;;;6.32;;
81672;SDS011;71092;41.158;-8.680;2024-01-16T01:01:51;13.45;;;6.88;;
81672;SDS011;71092;41.158;-8.680;2024-01-16T01:04:17;13.82;;;6.88;;
81672;SDS011;71092;41.158;-8.680;2024-01-16T01:09:09;17.75;;;7.93;;
81672;SDS011;71092;41.158;-8.680;2024-01-16T01:11:40;13.98;;;7.03;;
81672;SDS011;71092;41.158;-8.680;2024-01-16T01:14:06;14.93;;;6.82;;
81672;SDS011;71092;41.158;-8.680;2024-01-16T01:16:31;13.75;;;6.38;;
81672;SDS011;71092;41.158;-8.680;2024-01-16T01:21:24;13.20;;;5.88;;
81672;SDS011;71092;41.158;-8.680;2024-01-16T01:23:50;12.50;;;6.35;;
81672;SDS011;71092;41.158;-8.680;2024-01-16T01:26:15;12.32;;;5.93;;
81672;SDS011;71092;41.158;-8.680;2024-01-16T01:28:44;12.02;;;5.85;;
81672;SDS011;71092;41.158;-8.680;2024-01-16T01:31:10;14.05;;;5.57;;
81672;SDS011;71092;41.158;-8.680;2024-01-16T01:33:37;11.80;;;6.22;;
81672;SDS011;71092;41.158;-8.680;2024-01-16T01:36:04;13.48;;;6.40;;
81672;SDS011;71092;41.158;-8.680;2024-01-16T01:38:30;11.88;;;6.00;;
81672;SDS011;71092;41.158;-8.680;2024-01-16T01:40:56;12.52;;;5.60;;
81672;SDS011;71092;41.158;-8.680;2024-01-16T01:43:25;10.02;;;5.60;;
81672;SDS011;71092;41.158;-8.680;2024-01-16T01:45:56;12.63;;;6.00;;
81672;SDS011;71092;41.158;-8.680;2024-01-16T01:48:41;10.98;;;5.78;;
81672;SDS011;71092;41.158;-8.680;2024-01-16T01:51:08;9.85;;;4.72;;
81672;SDS011;71092;41.158;-8.680;2024-01-16T01:53:34;13.40;;;5.80;;
81672;SDS011;71092;41.158;-8.680;2024-01-16T01:56:02;11.27;;;5.88;;
81672;SDS011;71092;41.158;-8.680;2024-01-16T01:58:31;9.02;;;5.03;;
81672;SDS011;71092;41.158;-8.680;2024-01-16T02:00:59;11.10;;;5.30;;
81672;SDS011;71092;41.158;-8.680;2024-01-16T02:03:27;10.43;;;5.32;;
81672;SDS011;71092;41.158;-8.680;2024-01-16T02:05:55;11.95;;;6.00;;
81672;SDS011;71092;41.158;-8.680;2024-01-16T02:08:21;12.13;;;6.15;;
81672;SDS011;71092;41.158;-8.680;2024-01-16T02:10:48;13.27;;;5.38;;
81672;SDS011;71092;41.158;-8.680;2024-01-16T02:13:15;11.20;;;5.50;;
81672;SDS011;71092;41.158;-8.680;2024-01-16T02:15:44;12.65;;;5.45;;
81672;SDS011;71092;41.158;-8.680;2024-01-16T02:18:09;10.13;;;5.57;;
81672;SDS011;71092;41.158;-8.680;2024-01-16T02:20:36;11.32;;;6.22;;
81672;SDS011;71092;41.158;-8.680;2024-01-16T02:25:29;10.68;;;6.47;;
81672;SDS011;71092;41.158;-8.680;2024-01-16T02:27:55;11.68;;;5.63;;
81672;SDS011;71092;41.158;-8.680;2024-01-16T02:30:21;10.70;;;5.70;;
81672;SDS011;71092;41.158;-8.680;2024-01-16T02:35:13;12.93;;;6.22;;
81672;SDS011;71092;41.158;-8.680;2024-01-16T02:37:40;11.05;;;5.20;;
81672;SDS011;71092;41.158;-8.680;2024-01-16T02:42:33;12.90;;;5.93;;
81672;SDS011;71092;41.158;-8.680;2024-01-16T02:44:58;13.98;;;5.68;;
81672;SDS011;71092;41.158;-8.680;2024-01-16T02:47:24;9.75;;;4.50;;
81672;SDS011;71092;41.158;-8.680;2024-01-16T02:52:16;11.20;;;5.55;;
81672;SDS011;71092;41.158;-8.680;2024-01-16T02:54:42;9.95;;;5.10;;
81672;SDS011;71092;41.158;-8.680;2024-01-16T02:59:33;10.68;;;5.22;;
81672;SDS011;71092;41.158;-8.680;2024-01-16T03:01:59;10.18;;;5.68;;
81672;SDS011;71092;41.158;-8.680;2024-01-16T03:04:25;9.80;;;4.60;;
81672;SDS011;71092;41.158;-8.680;2024-01-16T03:09:17;8.57;;;4.65;;
81672;SDS011;71092;41.158;-8.680;2024-01-16T03:11:43;12.70;;;4.75;;
81672;SDS011;71092;41.158;-8.680;2024-01-16T03:14:09;12.95;;;5.00;;
81672;SDS011;71092;41.158;-8.680;2024-01-16T03:19:01;10.27;;;5.15;;
81672;SDS011;71092;41.158;-8.680;2024-01-16T03:21:26;10.35;;;5.13;;
81672;SDS011;71092;41.158;-8.680;2024-01-16T03:23:53;9.50;;;4.93;;
81672;SDS011;71092;41.158;-8.680;2024-01-16T03:26:18;11.13;;;5.22;;
81672;SDS011;71092;41.158;-8.680;2024-01-16T03:31:12;9.43;;;5.25;;
81672;SDS011;71092;41.158;-8.680;2024-01-16T03:33:40;10.57;;;5.50;;
81672;SDS011;71092;41.158;-8.680;2024-01-16T03:36:09;8.40;;;4.88;;
81672;SDS011;71092;41.158;-8.680;2024-01-16T03:38:35;10.48;;;5.50;;
81672;SDS011;71092;41.158;-8.680;2024-01-16T03:41:04;11.82;;;4.70;;
81672;SDS011;71092;41.158;-8.680;2024-01-16T03:43:35;10.93;;;5.68;;
81672;SDS011;71092;41.158;-8.680;2024-01-16T03:46:01;10.13;;;5.25;;
81672;SDS011;71092;41.158;-8.680;2024-01-16T03:48:27;10.52;;;5.38;;
81672;SDS011;71092;41.158;-8.680;2024-01-16T03:50:53;10.07;;;4.80;;
81672;SDS011;71092;41.158;-8.680;2024-01-16T03:53:22;9.50;;;5.03;;
81672;SDS011;71092;41.158;-8.680;2024-01-16T03:55:48;9.15;;;5.55;;
81672;SDS011;71092;41.158;-8.680;2024-01-16T03:58:15;10.80;;;4.40;;
81672;SDS011;71092;41.158;-8.680;2024-01-16T04:00:41;10.60;;;4.72;;
81672;SDS011;71092;41.158;-8.680;2024-01-16T04:03:08;13.27;;;5.40;;
81672;SDS011;71092;41.158;-8.680;2024-01-16T04:05:34;9.55;;;5.35;;
81672;SDS011;71092;41.158;-8.680;2024-01-16T04:08:00;9.90;;;4.80;;
81672;SDS011;71092;41.158;-8.680;2024-01-16T04:10:26;11.40;;;5.40;;
81672;SDS011;71092;41.158;-8.680;2024-01-16T04:15:17;10.82;;;4.95;;
81672;SDS011;71092;41.158;-8.680;2024-01-16T04:20:09;9.07;;;4.63;;
81672;SDS011;71092;41.158;-8.680;2024-01-16T04:22:36;10.35;;;5.18;;
81672;SDS011;71092;41.158;-8.680;2024-01-16T04:25:02;10.57;;;5.07;;
81672;SDS011;71092;41.158;-8.680;2024-01-16T04:27:30;10.52;;;5.30;;
81672;SDS011;71092;41.158;-8.680;2024-01-16T04:29:57;10.43;;;5.22;;
81672;SDS011;71092;41.158;-8.680;2024-01-16T04:32:23;10.00;;;3.90;;
81672;SDS011;71092;41.158;-8.680;2024-01-16T04:34:49;11.20;;;4.95;;
81672;SDS011;71092;41.158;-8.680;2024-01-16T04:37:16;13.23;;;5.30;;
81672;SDS011;71092;41.158;-8.680;2024-01-16T04:42:07;13.23;;;4.75;;
81672;SDS011;71092;41.158;-8.680;2024-01-16T04:46:59;16.08;;;5.78;;
81672;SDS011;71092;41.158;-8.680;2024-01-16T04:51:51;17.05;;;5.13;;
81672;SDS011;71092;41.158;-8.680;2024-01-16T04:56:45;13.02;;;5.30;;
81672;SDS011;71092;41.158;-8.680;2024-01-16T05:01:37;20.05;;;5.93;;
81672;SDS011;71092;41.158;-8.680;2024-01-16T05:04:03;12.48;;;5.35;;
81672;SDS011;71092;41.158;-8.680;2024-01-16T05:06:29;20.52;;;6.70;;
81672;SDS011;71092;41.158;-8.680;2024-01-16T05:08:55;14.15;;;5.75;;
81672;SDS011;71092;41.158;-8.680;2024-01-16T05:11:21;18.02;;;6.18;;
81672;SDS011;71092;41.158;-8.680;2024-01-16T05:13:47;15.40;;;6.25;;
81672;SDS011;71092;41.158;-8.680;2024-01-16T05:18:41;17.33;;;5.28;;
81672;SDS011;71092;41.158;-8.680;2024-01-16T05:21:08;15.98;;;6.35;;
81672;SDS011;71092;41.158;-8.680;2024-01-16T05:23:33;15.27;;;5.60;;
81672;SDS011;71092;41.158;-8.680;2024-01-16T05:28:25;11.38;;;5.85;;
81672;SDS011;71092;41.158;-8.680;2024-01-16T05:30:51;22.80;;;6.07;;
81672;SDS011;71092;41.158;-8.680;2024-01-16T05:35:43;19.88;;;7.07;;
81672;SDS011;71092;41.158;-8.680;2024-01-16T05:38:09;17.50;;;6.05;;
81672;SDS011;71092;41.158;-8.680;2024-01-16T05:40:37;15.98;;;5.68;;
81672;SDS011;71092;41.158;-8.680;2024-01-16T05:43:04;13.57;;;5.20;;
81672;SDS011;71092;41.158;-8.680;2024-01-16T05:45:30;14.85;;;5.65;;
81672;SDS011;71092;41.158;-8.680;2024-01-16T05:50:22;19.40;;;6.28;;
81672;SDS011;71092;41.158;-8.680;2024-01-16T05:52:47;22.20;;;6.03;;
81672;SDS011;71092;41.158;-8.680;2024-01-16T05:55:13;15.93;;;6.00;;
81672;SDS011;71092;41.158;-8.680;2024-01-16T05:57:40;16.35;;;5.75;;
81672;SDS011;71092;41.158;-8.680;2024-01-16T06:00:06;15.98;;;6.18;;
81672;SDS011;71092;41.158;-8.680;2024-01-16T06:02:32;15.77;;;5.85;;
81672;SDS011;71092;41.158;-8.680;2024-01-16T06:05:01;14.23;;;5.43;;
81672;SDS011;71092;41.158;-8.680;2024-01-16T06:07:28;11.57;;;4.93;;
81672;SDS011;71092;41.158;-8.680;2024-01-16T06:12:19;17.10;;;6.10;;
81672;SDS011;71092;41.158;-8.680;2024-01-16T06:17:11;19.15;;;6.00;;
81672;SDS011;71092;41.158;-8.680;2024-01-16T06:19:37;16.15;;;5.95;;
81672;SDS011;71092;41.158;-8.680;2024-01-16T06:22:03;15.27;;;5.78;;
81672;SDS011;71092;41.158;-8.680;2024-01-16T06:24:30;19.05;;;5.82;;
81672;SDS011;71092;41.158;-8.680;2024-01-16T06:29:31;19.17;;;5.47;;
81672;SDS011;71092;41.158;-8.680;2024-01-16T06:31:58;14.15;;;5.60;;
81672;SDS011;71092;41.158;-8.680;2024-01-16T06:34:24;21.50;;;6.78;;
81672;SDS011;71092;41.158;-8.680;2024-01-16T06:36:50;16.80;;;4.88;;
81672;SDS011;71092;41.158;-8.680;2024-01-16T06:39:16;16.55;;;5.13;;
81672;SDS011;71092;41.158;-8.680;2024-01-16T06:41:42;16.63;;;5.40;;
81672;SDS011;71092;41.158;-8.680;2024-01-16T06:46:34;18.42;;;5.50;;
81672;SDS011;71092;41.158;-8.680;2024-01-16T06:49:00;15.55;;;5.53;;
81672;SDS011;71092;41.158;-8.680;2024-01-16T06:53:52;12.65;;;4.55;;
81672;SDS011;71092;41.158;-8.680;2024-01-16T06:56:18;15.95;;;5.72;;
81672;SDS011;71092;41.158;-8.680;2024-01-16T07:01:10;12.50;;;5.45;;
81672;SDS011;71092;41.158;-8.680;2024-01-16T07:03:36;16.60;;;5.82;;
81672;SDS011;71092;41.158;-8.680;2024-01-16T07:06:03;14.10;;;4.80;;
81672;SDS011;71092;41.158;-8.680;2024-01-16T07:08:29;18.35;;;6.07;;
81672;SDS011;71092;41.158;-8.680;2024-01-16T07:10:55;20.83;;;6.35;;
81672;SDS011;71092;41.158;-8.680;2024-01-16T07:13:22;16.25;;;6.95;;
81672;SDS011;71092;41.158;-8.680;2024-01-16T07:15:47;13.60;;;5.18;;
81672;SDS011;71092;41.158;-8.680;2024-01-16T07:18:14;16.13;;;5.63;;
81672;SDS011;71092;41.158;-8.680;2024-01-16T07:20:40;18.83;;;5.20;;
81672;SDS011;71092;41.158;-8.680;2024-01-16T07:23:06;17.40;;;5.50;;
81672;SDS011;71092;41.158;-8.680;2024-01-16T07:25:32;14.68;;;6.03;;
81672;SDS011;71092;41.158;-8.680;2024-01-16T07:27:58;17.23;;;5.35;;
81672;SDS011;71092;41.158;-8.680;2024-01-16T07:30:24;15.65;;;7.10;;
81672;SDS011;71092;41.158;-8.680;2024-01-16T07:32:49;12.45;;;5.95;;
81672;SDS011;71092;41.158;-8.680;2024-01-16T07:35:16;15.43;;;5.55;;
81672;SDS011;71092;41.158;-8.680;2024-01-16T07:37:42;12.98;;;6.15;;
81672;SDS011;71092;41.158;-8.680;2024-01-16T07:40:08;12.65;;;5.25;;
81672;SDS011;71092;41.158;-8.680;2024-01-16T07:42:35;16.67;;;6.10;;
81672;SDS011;71092;41.158;-8.680;2024-01-16T07:45:01;18.63;;;6.68;;
81672;SDS011;71092;41.158;-8.680;2024-01-16T07:47:31;15.75;;;5.82;;
81672;SDS011;71092;41.158;-8.680;2024-01-16T07:49:58;14.07;;;6.88;;
81672;SDS011;71092;41.158;-8.680;2024-01-16T07:52:25;10.20;;;4.75;;
81672;SDS011;71092;41.158;-8.680;2024-01-16T07:54:52;11.02;;;4.57;;
81672;SDS011;71092;41.158;-8.680;2024-01-16T07:57:18;14.45;;;5.20;;
81672;SDS011;71092;41.158;-8.680;2024-01-16T07:59:44;19.83;;;5.10;;
81672;SDS011;71092;41.158;-8.680;2024-01-16T08:02:10;10.98;;;4.65;;
81672;SDS011;71092;41.158;-8.680;2024-01-16T08:04:36;14.45;;;5.22;;
81672;SDS011;71092;41.158;-8.680;2024-01-16T08:09:27;14.73;;;5.85;;
81672;SDS011;71092;41.158;-8.680;2024-01-16T08:11:53;13.57;;;4.63;;
81672;SDS011;71092;41.158;-8.680;2024-01-16T08:14:19;13.68;;;5.13;;
81672;SDS011;71092;41.158;-8.680;2024-01-16T08:16:45;13.43;;;5.07;;
81672;SDS011;71092;41.158;-8.680;2024-01-16T08:19:11;14.57;;;5.55;;
81672;SDS011;71092;41.158;-8.680;2024-01-16T08:21:37;18.90;;;5.72;;
81672;SDS011;71092;41.158;-8.680;2024-01-16T08:24:03;11.73;;;4.63;;
81672;SDS011;71092;41.158;-8.680;2024-01-16T08:26:29;12.55;;;5.13;;
81672;SDS011;71092;41.158;-8.680;2024-01-16T08:28:55;15.00;;;4.75;;
81672;SDS011;71092;41.158;-8.680;2024-01-16T08:31:21;14.20;;;5.18;;
81672;SDS011;71092;41.158;-8.680;2024-01-16T08:33:46;12.00;;;5.75;;
81672;SDS011;71092;41.158;-8.680;2024-01-16T08:36:13;12.60;;;5.80;;
81672;SDS011;71092;41.158;-8.680;2024-01-16T08:38:40;13.85;;;5.35;;
81672;SDS011;71092;41.158;-8.680;2024-01-16T08:41:07;12.68;;;4.53;;
81672;SDS011;71092;41.158;-8.680;2024-01-16T08:43:33;10.15;;;4.68;;
81672;SDS011;71092;41.158;-8.680;2024-01-16T08:45:59;10.27;;;5.15;;
81672;SDS011;71092;41.158;-8.680;2024-01-16T08:48:25;12.95;;;5.55;;
81672;SDS011;71092;41.158;-8.680;2024-01-16T08:53:17;10.30;;;4.95;;
81672;SDS011;71092;41.158;-8.680;2024-01-16T08:55:43;12.05;;;4.25;;
81672;SDS011;71092;41.158;-8.680;2024-01-16T08:58:09;13.05;;;5.25;;
81672;SDS011;71092;41.158;-8.680;2024-01-16T09:00:35;11.05;;;5.30;;
81672;SDS011;71092;41.158;-8.680;2024-01-16T09:03:00;14.25;;;5.25;;
81672;SDS011;71092;41.158;-8.680;2024-01-16T09:05:27;14.23;;;6.35;;
81672;SDS011;71092;41.158;-8.680;2024-01-16T09:07:53;12.07;;;5.72;;
81672;SDS011;71092;41.158;-8.680;2024-01-16T09:10:18;14.82;;;5.47;;
81672;SDS011;71092;41.158;-8.680;2024-01-16T09:12:45;13.80;;;5.13;;
81672;SDS011;71092;41.158;-8.680;2024-01-16T09:15:11;10.25;;;5.20;;
81672;SDS011;71092;41.158;-8.680;2024-01-16T09:17:37;15.93;;;5.57;;
81672;SDS011;71092;41.158;-8.680;2024-01-16T09:20:05;12.40;;;5.43;;
81672;SDS011;71092;41.158;-8.680;2024-01-16T09:22:32;12.13;;;5.78;;
81672;SDS011;71092;41.158;-8.680;2024-01-16T09:24:58;13.23;;;5.60;;
81672;SDS011;71092;41.158;-8.680;2024-01-16T09:27:24;10.77;;;4.55;;
81672;SDS011;71092;41.158;-8.680;2024-01-16T09:29:50;11.18;;;5.10;;
81672;SDS011;71092;41.158;-8.680;2024-01-16T09:32:16;12.65;;;5.03;;
81672;SDS011;71092;41.158;-8.680;2024-01-16T09:34:42;16.40;;;4.93;;
81672;SDS011;71092;41.158;-8.680;2024-01-16T09:37:08;11.73;;;4.57;;
81672;SDS011;71092;41.158;-8.680;2024-01-16T09:39:34;19.60;;;6.63;;
81672;SDS011;71092;41.158;-8.680;2024-01-16T09:42:03;11.00;;;5.22;;
81672;SDS011;71092;41.158;-8.680;2024-01-16T09:44:29;15.48;;;4.97;;
81672;SDS011;71092;41.158;-8.680;2024-01-16T09:46:55;13.25;;;5.07;;
81672;SDS011;71092;41.158;-8.680;2024-01-16T09:49:23;11.60;;;4.80;;
81672;SDS011;71092;41.158;-8.680;2024-01-16T09:51:49;14.52;;;4.95;;
81672;SDS011;71092;41.158;-8.680;2024-01-16T09:54:15;17.45;;;5.82;;
81672;SDS011;71092;41.158;-8.680;2024-01-16T09:56:42;16.48;;;5.95;;
81672;SDS011;71092;41.158;-8.680;2024-01-16T09:59:12;15.27;;;5.63;;
81672;SDS011;71092;41.158;-8.680;2024-01-16T10:01:43;15.23;;;5.85;;
81672;SDS011;71092;41.158;-8.680;2024-01-16T10:04:10;12.90;;;5.28;;
81672;SDS011;71092;41.158;-8.680;2024-01-16T10:06:36;14.40;;;5.15;;
81672;SDS011;71092;41.158;-8.680;2024-01-16T10:09:03;10.13;;;5.65;;
81672;SDS011;71092;41.158;-8.680;2024-01-16T10:11:30;15.52;;;5.85;;
81672;SDS011;71092;41.158;-8.680;2024-01-16T10:13:57;15.48;;;5.68;;
81672;SDS011;71092;41.158;-8.680;2024-01-16T10:16:54;17.60;;;5.75;;
81672;SDS011;71092;41.158;-8.680;2024-01-16T10:19:31;14.48;;;5.30;;
81672;SDS011;71092;41.158;-8.680;2024-01-16T10:22:00;13.15;;;5.28;;
81672;SDS011;71092;41.158;-8.680;2024-01-16T10:24:30;11.13;;;5.35;;
81672;SDS011;71092;41.158;-8.680;2024-01-16T10:26:59;17.98;;;5.93;;
81672;SDS011;71092;41.158;-8.680;2024-01-16T10:29:29;12.40;;;5.95;;
81672;SDS011;71092;41.158;-8.680;2024-01-16T10:31:58;17.42;;;6.13;;
81672;SDS011;71092;41.158;-8.680;2024-01-16T10:34:24;11.70;;;4.88;;
81672;SDS011;71092;41.158;-8.680;2024-01-16T10:36:52;11.52;;;5.25;;
81672;SDS011;71092;41.158;-8.680;2024-01-16T10:39:24;11.20;;;5.03;;
81672;SDS011;71092;41.158;-8.680;2024-01-16T10:41:54;14.68;;;4.50;;
81672;SDS011;71092;41.158;-8.680;2024-01-16T10:44:21;12.30;;;4.82;;
81672;SDS011;71092;41.158;-8.680;2024-01-16T10:46:47;14.30;;;4.85;;
81672;SDS011;71092;41.158;-8.680;2024-01-16T10:49:13;12.75;;;5.20;;
81672;SDS011;71092;41.158;-8.680;2024-01-16T10:51:39;13.55;;;4.97;;
81672;SDS011;71092;41.158;-8.680;2024-01-16T10:54:09;11.35;;;4.50;;
81672;SDS011;71092;41.158;-8.680;2024-01-16T10:56:44;12.68;;;4.75;;
81672;SDS011;71092;41.158;-8.680;2024-01-16T10:59:18;13.82;;;4.78;;
81672;SDS011;71092;41.158;-8.680;2024-01-16T11:01:46;9.18;;;3.55;;
81672;SDS011;71092;41.158;-8.680;2024-01-16T11:04:17;12.30;;;4.45;;
81672;SDS011;71092;41.158;-8.680;2024-01-16T11:06:44;14.35;;;4.95;;
81672;SDS011;71092;41.158;-8.680;2024-01-16T11:09:12;12.32;;;5.60;;
81672;SDS011;71092;41.158;-8.680;2024-01-16T11:11:41;13.70;;;4.43;;
81672;SDS011;71092;41.158;-8.680;2024-01-16T11:14:09;11.02;;;5.35;;
81672;SDS011;71092;41.158;-8.680;2024-01-16T11:16:36;13.57;;;4.63;;
81672;SDS011;71092;41.158;-8.680;2024-01-16T11:19:03;13.15;;;4.95;;
81672;SDS011;71092;41.158;-8.680;2024-01-16T11:21:31;11.63;;;4.65;;
81672;SDS011;71092;41.158;-8.680;2024-01-16T11:23:57;13.23;;;4.82;;
81672;SDS011;71092;41.158;-8.680;2024-01-16T11:28:53;14.23;;;5.20;;
81672;SDS011;71092;41.158;-8.680;2024-01-16T11:31:34;15.13;;;4.75;;
81672;SDS011;71092;41.158;-8.680;2024-01-16T11:34:01;15.43;;;4.95;;
81672;SDS011;71092;41.158;-8.680;2024-01-16T11:39:19;17.65;;;4.30;;
81672;SDS011;71092;41.158;-8.680;2024-01-16T11:41:52;17.52;;;5.40;;
81672;SDS011;71092;41.158;-8.680;2024-01-16T11:47:16;16.42;;;5.60;;
81672;SDS011;71092;41.158;-8.680;2024-01-16T11:49:52;13.98;;;4.85;;
81672;SDS011;71092;41.158;-8.680;2024-01-16T11:52:44;18.45;;;4.65;;
81672;SDS011;71092;41.158;-8.680;2024-01-16T11:55:30;15.77;;;5.07;;
81672;SDS011;71092;41.158;-8.680;2024-01-16T12:00:52;16.92;;;5.20;;
81672;SDS011;71092;41.158;-8.680;2024-01-16T12:03:20;13.55;;;6.07;;
81672;SDS011;71092;41.158;-8.680;2024-01-16T12:05:57;17.30;;;5.35;;
81672;SDS011;71092;41.158;-8.680;2024-01-16T12:08:23;15.00;;;5.78;;
81672;SDS011;71092;41.158;-8.680;2024-01-16T12:10:49;14.10;;;5.75;;
81672;SDS011;71092;41.158;-8.680;2024-01-16T12:13:15;20.60;;;5.70;;
81672;SDS011;71092;41.158;-8.680;2024-01-16T12:15:42;17.38;;;6.00;;
81672;SDS011;71092;41.158;-8.680;2024-01-16T12:18:08;19.40;;;6.63;;
81672;SDS011;71092;41.158;-8.680;2024-01-16T12:20:35;14.38;;;6.97;;
81672;SDS011;71092;41.158;-8.680;2024-01-16T12:23:08;17.65;;;6.32;;
81672;SDS011;71092;41.158;-8.680;2024-01-16T12:25:35;18.13;;;6.40;;
81672;SDS011;71092;41.158;-8.680;2024-01-16T12:28:05;18.05;;;6.97;;
81672;SDS011;71092;41.158;-8.680;2024-01-16T12:30:33;13.15;;;5.70;;
81672;SDS011;71092;41.158;-8.680;2024-01-16T12:33:06;17.30;;;6.63;;
81672;SDS011;71092;41.158;-8.680;2024-01-16T12:35:34;19.80;;;6.35;;
81672;SDS011;71092;41.158;-8.680;2024-01-16T12:38:04;17.15;;;7.50;;
81672;SDS011;71092;41.158;-8.680;2024-01-16T12:40:31;16.52;;;6.90;;
81672;SDS011;71092;41.158;-8.680;2024-01-16T12:42:58;20.77;;;6.70;;
81672;SDS011;71092;41.158;-8.680;2024-01-16T12:45:25;19.30;;;6.32;;
81672;SDS011;71092;41.158;-8.680;2024-01-16T12:47:54;20.65;;;6.20;;
81672;SDS011;71092;41.158;-8.680;2024-01-16T12:50:24;17.48;;;6.05;;
81672;SDS011;71092;41.158;-8.680;2024-01-16T12:55:28;22.23;;;6.57;;
81672;SDS011;71092;41.158;-8.680;2024-01-16T13:00:42;20.90;;;7.18;;
81672;SDS011;71092;41.158;-8.680;2024-01-16T13:03:18;18.63;;;7.90;;
81672;SDS011;71092;41.158;-8.680;2024-01-16T13:05:46;23.60;;;7.35;;
81672;SDS011;71092;41.158;-8.680;2024-01-16T13:08:20;20.48;;;6.50;;
81672;SDS011;71092;41.158;-8.680;2024-01-16T13:10:46;14.35;;;6.22;;
81672;SDS011;71092;41.158;-8.680;2024-01-16T13:13:16;17.67;;;5.32;;
81672;SDS011;71092;41.158;-8.680;2024-01-16T13:15:43;17.80;;;5.75;;
81672;SDS011;71092;41.158;-8.680;2024-01-16T13:18:20;22.45;;;5.95;;
81672;SDS011;71092;41.158;-8.680;2024-01-16T13:20:48;17.58;;;7.38;;
81672;SDS011;71092;41.158;-8.680;2024-01-16T13:23:18;16.27;;;6.18;;
81672;SDS011;71092;41.158;-8.680;2024-01-16T13:25:44;15.85;;;5.82;;
81672;SDS011;71092;41.158;-8.680;2024-01-16T13:28:12;17.30;;;5.22;;
81672;SDS011;71092;41.158;-8.680;2024-01-16T13:30:39;14.93;;;4.88;;
81672;SDS011;71092;41.158;-8.680;2024-01-16T13:33:06;14.32;;;4.68;;
81672;SDS011;71092;41.158;-8.680;2024-01-16T13:35:37;14.82;;;5.45;;
81672;SDS011;71092;41.158;-8.680;2024-01-16T13:38:05;18.63;;;5.20;;
81672;SDS011;71092;41.158;-8.680;2024-01-16T13:40:32;17.00;;;5.43;;
81672;SDS011;71092;41.158;-8.680;2024-01-16T13:42:58;19.80;;;6.32;;
81672;SDS011;71092;41.158;-8.680;2024-01-16T13:45:25;13.63;;;5.43;;
81672;SDS011;71092;41.158;-8.680;2024-01-16T13:47:55;16.67;;;5.47;;
81672;SDS011;71092;41.158;-8.680;2024-01-16T13:50:22;21.38;;;5.80;;
81672;SDS011;71092;41.158;-8.680;2024-01-16T13:52:49;15.85;;;5.07;;
81672;SDS011;71092;41.158;-8.680;2024-01-16T13:55:17;13.90;;;5.43;;
81672;SDS011;71092;41.158;-8.680;2024-01-16T13:57:44;16.75;;;5.22;;
81672;SDS011;71092;41.158;-8.680;2024-01-16T14:00:11;16.70;;;5.10;;
81672;SDS011;71092;41.158;-8.680;2024-01-16T14:02:45;14.15;;;5.13;;
81672;SDS011;71092;41.158;-8.680;2024-01-16T14:05:18;11.52;;;4.45;;
81672;SDS011;71092;41.158;-8.680;2024-01-16T14:07:45;16.10;;;5.13;;
81672;SDS011;71092;41.158;-8.680;2024-01-16T14:10:17;12.05;;;4.93;;
81672;SDS011;71092;41.158;-8.680;2024-01-16T14:12:48;13.93;;;4.78;;
81672;SDS011;71092;41.158;-8.680;2024-01-16T14:15:17;16.88;;;4.38;;
81672;SDS011;71092;41.158;-8.680;2024-01-16T14:17:49;18.52;;;5.22;;
81672;SDS011;71092;41.158;-8.680;2024-01-16T14:20:17;15.52;;;4.18;;
81672;SDS011;71092;41.158;-8.680;2024-01-16T14:22:46;17.58;;;5.05;;
81672;SDS011;71092;41.158;-8.680;2024-01-16T14:25:13;15.73;;;5.25;;
81672;SDS011;71092;41.158;-8.680;2024-01-16T14:27:43;17.85;;;4.70;;
81672;SDS011;71092;41.158;-8.680;2024-01-16T14:30:11;24.23;;;5.32;;
81672;SDS011;71092;41.158;-8.680;2024-01-16T14:32:52;20.90;;;4.75;;
81672;SDS011;71092;41.158;-8.680;2024-01-16T14:35:27;21.27;;;5.65;;
81672;SDS011;71092;41.158;-8.680;2024-01-16T14:37:56;10.68;;;4.90;;
81672;SDS011;71092;41.158;-8.680;2024-01-16T14:40:24;14.18;;;4.88;;
81672;SDS011;71092;41.158;-8.680;2024-01-16T14:42:53;19.92;;;4.72;;
81672;SDS011;71092;41.158;-8.680;2024-01-16T14:45:22;15.60;;;4.57;;
81672;SDS011;71092;41.158;-8.680;2024-01-16T14:47:50;18.92;;;5.88;;
81672;SDS011;71092;41.158;-8.680;2024-01-16T14:50:16;13.57;;;4.70;;
81672;SDS011;71092;41.158;-8.680;2024-01-16T14:52:44;16.90;;;4.78;;
81672;SDS011;71092;41.158;-8.680;2024-01-16T14:55:11;16.30;;;5.25;;
81672;SDS011;71092;41.158;-8.680;2024-01-16T14:57:40;17.40;;;5.97;;
81672;SDS011;71092;41.158;-8.680;2024-01-16T15:00:17;24.88;;;5.72;;
81672;SDS011;71092;41.158;-8.680;2024-01-16T15:02:54;18.70;;;5.40;;
81672;SDS011;71092;41.158;-8.680;2024-01-16T15:05:21;17.77;;;5.55;;
81672;SDS011;71092;41.158;-8.680;2024-01-16T15:07:47;15.68;;;4.97;;
81672;SDS011;71092;41.158;-8.680;2024-01-16T15:10:14;20.20;;;5.45;;
81672;SDS011;71092;41.158;-8.680;2024-01-16T15:12:42;16.80;;;5.68;;
81672;SDS011;71092;41.158;-8.680;2024-01-16T15:15:13;21.20;;;5.00;;
81672;SDS011;71092;41.158;-8.680;2024-01-16T15:17:40;17.20;;;4.75;;
81672;SDS011;71092;41.158;-8.680;2024-01-16T15:20:07;17.90;;;4.82;;
81672;SDS011;71092;41.158;-8.680;2024-01-16T15:22:39;24.85;;;5.07;;
81672;SDS011;71092;41.158;-8.680;2024-01-16T15:25:05;16.92;;;5.30;;
81672;SDS011;71092;41.158;-8.680;2024-01-16T15:27:32;24.08;;;5.95;;
81672;SDS011;71092;41.158;-8.680;2024-01-16T15:29:58;20.50;;;5.32;;
81672;SDS011;71092;41.158;-8.680;2024-01-16T15:32:25;18.60;;;4.85;;
81672;SDS011;71092;41.158;-8.680;2024-01-16T15:34:51;18.88;;;5.28;;
81672;SDS011;71092;41.158;-8.680;2024-01-16T15:37:17;18.55;;;4.85;;
81672;SDS011;71092;41.158;-8.680;2024-01-16T15:39:43;16.50;;;5.28;;
81672;SDS011;71092;41.158;-8.680;2024-01-16T15:42:11;19.92;;;4.93;;
81672;SDS011;71092;41.158;-8.680;2024-01-16T15:44:38;21.38;;;5.95;;
81672;SDS011;71092;41.158;-8.680;2024-01-16T15:47:04;18.80;;;5.65;;
81672;SDS011;71092;41.158;-8.680;2024-01-16T15:49:30;13.93;;;4.85;;
81672;SDS011;71092;41.158;-8.680;2024-01-16T15:51:57;15.55;;;5.35;;
81672;SDS011;71092;41.158;-8.680;2024-01-16T15:54:26;26.77;;;5.40;;
81672;SDS011;71092;41.158;-8.680;2024-01-16T15:56:53;19.10;;;5.60;;
81672;SDS011;71092;41.158;-8.680;2024-01-16T15:59:22;21.08;;;5.97;;
81672;SDS011;71092;41.158;-8.680;2024-01-16T16:01:48;22.65;;;5.55;;